Camdenton, MO

8:53 PM CST on January 20, 2017 (GMT -0600)
KMOCAMDE4 | | Change Station

Elev 961 ft 38.00 °N, 92.75 °W | Updated 1 day ago

Clear
Clear
51.1 °F
Feels Like 51.1 °F
N
1.0
Wind Variable Wind from North
Gusts 2.0 mph

Today
High -- | Low -- °F
--% Chance of Precip.
Yesterday
High -- | Low -- °F
Precip. -- in
Pressure 28.90 in
Visibility 10.0 miles
Clouds Clear
Dew Point 48.9 °F
Humidity 92%
Rainfall in
Snow Depth Not available.
7:23 AM 5:21 PM
Last Quarter, 39% visible
METAR KAIZ 210156Z AUTO 16006KT 10SM CLR 12/08 A2952 RMK AO2 SLP786 T01170083
Pressure 28.90 in
Visibility 10.0 miles
Clouds Clear
Dew Point 48.9 °F
Humidity 92%
Rainfall in
Snow Depth Not available.
7:23 AM 5:21 PM
Last Quarter, 39% visible
METAR KAIZ 210156Z AUTO 16006KT 10SM CLR 12/08 A2952 RMK AO2 SLP786 T01170083

Get Your Daily Forecast Email!

Thanks for signing up!

Be on the lookout for a verification email in your inbox.

You'll start receiving the daily forecast at 8 AM.

×

10-Day Weather Forecast

Almanac

Astronomy

Jan. 20, 2017 Rise Set
Actual Time
Civil Twilight
Nautical Twilight
Astronomical Twilight
Moon
Length of Visible Light
Length of Day
Tomorrow will be .
, % of the Moon is Illuminated

Today's Extremes

State Highs State Lows

Community

WunderPhotos

Upload Photos

1,962,540 photos uploaded!

WunderBlog® & News

Nearby

Air Quality

  Air Quality AQ Index Pollutant
Not available.

Snow Depth

Station Depth Elevation

Earthquake Activity

City Distance Mag. Time & Date
Minimum magnitude displayed is 2.5.

Coastal Water Temperatures

Place Temperature

Stations

Nearby Weather Stations

Station Location Temp. Windchill Dew Point Humidity Wind Precip. Elev Updated Type
                   

Watches & Warnings

There are currently no watches in effect.